Time;durP1;ratioP1;P1;durP2;ratioP2;P2;SDS_P1;SDS_P2;PMS_P1;PMS_P2;Temp;Humidity;BMP_temperature;BMP_pressure;BME280_temperature;BME280_humidity;BME280_pressure;Samples;Min_cycle;Max_cycle;Signal;HPM_P1;HPM_P2
2022/11/03 00:00:59;;;;;;;4.50;2.77;;;8.60;99.90;;;;;;5052677;28;20518;-76
2022/11/03 00:03:25;;;;;;;6.40;3.13;;;8.70;99.90;;;;;;5051274;28;20189;-76
2022/11/03 00:06:03;;;;;;;7.73;3.27;;;8.70;99.90;;;;;;5051668;28;20452;-75
2022/11/03 00:08:33;;;;;;;8.40;3.20;;;8.70;99.90;;;;;;5053272;28;20415;-75
2022/11/03 00:11:11;;;;;;;5.57;3.00;;;8.70;99.90;;;;;;5051839;28;20456;-76
2022/11/03 00:13:39;;;;;;;3.70;3.40;;;8.80;99.90;;;;;;5051861;28;20995;-82
2022/11/03 00:16:06;;;;;;;8.83;2.83;;;8.80;99.90;;;;;;5053000;28;20414;-78
2022/11/03 00:18:32;;;;;;;3.50;3.20;;;8.80;99.90;;;;;;5050942;28;20457;-75
2022/11/03 00:20:58;;;;;;;5.03;2.97;;;8.90;99.90;;;;;;5052054;28;20460;-76
2022/11/03 00:23:26;;;;;;;6.50;3.07;;;8.90;99.90;;;;;;5052334;28;20414;-77
2022/11/03 00:25:52;;;;;;;8.70;3.40;;;8.90;99.90;;;;;;5052264;28;20447;-79
2022/11/03 00:28:17;;;;;;;4.03;2.87;;;8.80;99.90;;;;;;5052056;28;20404;-75
2022/11/03 00:30:43;;;;;;;6.73;3.10;;;8.80;99.90;;;;;;5050900;28;20207;-77
2022/11/03 00:33:09;;;;;;;9.73;3.97;;;8.80;99.90;;;;;;5052531;28;20167;-75
2022/11/03 00:35:34;;;;;;;10.97;3.50;;;8.80;99.90;;;;;;5051949;28;20443;-75
2022/11/03 00:38:00;;;;;;;9.43;4.00;;;8.80;99.30;;;;;;5052280;28;20177;-76
2022/11/03 00:40:26;;;;;;;10.03;3.10;;;8.80;99.90;;;;;;5052809;28;20167;-75
2022/11/03 00:42:51;;;;;;;8.20;4.67;;;8.80;99.90;;;;;;5068579;28;20172;-76
2022/11/03 00:45:17;;;;;;;21.63;4.33;;;8.80;99.90;;;;;;5051791;28;20252;-75
2022/11/03 00:50:27;;;;;;;9.80;3.77;;;8.80;97.90;;;;;;5052309;28;20245;-78
2022/11/03 00:52:52;;;;;;;4.17;3.47;;;8.80;93.60;;;;;;5052302;28;20403;-77
2022/11/03 00:55:18;;;;;;;2.93;2.73;;;8.80;96.50;;;;;;5051639;28;20181;-76
2022/11/03 00:57:44;;;;;;;7.33;2.67;;;8.80;96.90;;;;;;5050882;28;20174;-77
2022/11/03 01:00:10;;;;;;;3.30;2.80;;;8.80;94.40;;;;;;5051553;28;20172;-75
2022/11/03 01:02:36;;;;;;;8.70;4.10;;;8.80;93.80;;;;;;5052776;28;20414;-75
2022/11/03 01:07:46;;;;;;;6.60;2.73;;;8.80;92.00;;;;;;5052164;28;20201;-76
2022/11/03 01:10:12;;;;;;;6.60;4.03;;;8.90;92.10;;;;;;5051676;28;21000;-78
2022/11/03 01:12:37;;;;;;;4.50;2.60;;;8.90;92.10;;;;;;5052729;28;20523;-75
2022/11/03 01:15:03;;;;;;;4.10;2.63;;;8.90;90.90;;;;;;5051677;28;20215;-77
2022/11/03 01:17:29;;;;;;;3.67;2.83;;;8.90;92.00;;;;;;5051729;28;20208;-77
2022/11/03 01:19:55;;;;;;;9.23;3.00;;;8.90;92.00;;;;;;5051070;28;20420;-75
2022/11/03 01:22:22;;;;;;;4.67;2.80;;;8.90;92.00;;;;;;5052573;28;20439;-78
2022/11/03 01:24:48;;;;;;;5.53;3.23;;;8.90;92.00;;;;;;5050443;28;20179;-76
2022/11/03 01:27:16;;;;;;;4.23;2.80;;;8.90;92.00;;;;;;5051647;28;20444;-74
2022/11/03 01:29:42;;;;;;;7.67;3.00;;;9.00;92.00;;;;;;5051552;28;20177;-78
2022/11/03 01:32:08;;;;;;;4.70;3.20;;;9.00;91.80;;;;;;5052693;28;20393;-74
2022/11/03 01:34:35;;;;;;;9.20;3.40;;;9.00;92.00;;;;;;5048512;28;20696;-75
2022/11/03 01:37:01;;;;;;;7.23;2.57;;;9.00;91.30;;;;;;5053200;28;20443;-77
2022/11/03 01:39:27;;;;;;;5.30;2.60;;;9.00;89.60;;;;;;5055906;28;20424;-75
2022/11/03 01:41:53;;;;;;;5.00;2.93;;;9.10;92.00;;;;;;5055183;28;20189;-75
2022/11/03 01:44:18;;;;;;;7.07;3.70;;;9.10;91.40;;;;;;5054864;28;20174;-77
2022/11/03 01:47:06;;;;;;;8.40;3.43;;;9.10;89.90;;;;;;5053690;28;20454;-79
2022/11/03 01:49:44;;;;;;;2.90;2.13;;;9.10;91.80;;;;;;5055627;28;20169;-77
2022/11/03 01:52:35;;;;;;;10.57;3.40;;;9.10;84.00;;;;;;5055960;28;20397;-74
2022/11/03 01:55:06;;;;;;;12.57;2.83;;;9.10;90.90;;;;;;5053758;28;20430;-75
2022/11/03 01:57:39;;;;;;;2.90;2.70;;;9.10;78.20;;;;;;5054524;28;20767;-77
2022/11/03 02:00:06;;;;;;;12.43;2.90;;;9.10;68.60;;;;;;5054989;28;20983;-77
2022/11/03 02:02:32;;;;;;;11.63;2.93;;;9.20;78.30;;;;;;5055293;28;20380;-75
2022/11/03 02:05:01;;;;;;;9.60;2.93;;;9.20;70.40;;;;;;5054661;28;20388;-77
2022/11/03 02:07:36;;;;;;;3.47;3.00;;;9.20;73.30;;;;;;5053697;28;20363;-76
2022/11/03 02:10:02;;;;;;;12.03;3.43;;;9.10;70.90;;;;;;5044629;28;20497;-75
2022/11/03 02:12:29;;;;;;;5.73;2.80;;;9.20;73.00;;;;;;5055431;28;20826;-77
2022/11/03 02:15:03;;;;;;;4.57;2.57;;;9.20;78.60;;;;;;5054150;28;20417;-75
2022/11/03 02:17:30;;;;;;;6.67;3.20;;;9.20;73.30;;;;;;5055131;28;20439;-76
2022/11/03 02:20:02;;;;;;;3.47;2.80;;;9.20;74.70;;;;;;5054149;28;20836;-77
2022/11/03 02:22:50;;;;;;;6.60;2.83;;;9.20;66.60;;;;;;5055298;28;20403;-76
2022/11/03 02:25:33;;;;;;;3.20;2.83;;;9.20;72.30;;;;;;5045278;28;20442;-76
2022/11/03 02:28:00;;;;;;;7.50;3.90;;;9.20;71.30;;;;;;5053098;28;20423;-77
2022/11/03 02:30:45;;;;;;;5.50;3.40;;;9.20;73.60;;;;;;5054641;28;20446;-76
2022/11/03 02:33:36;;;;;;;9.23;2.73;;;9.20;74.70;;;;;;5053559;28;20817;-77
2022/11/03 02:36:20;;;;;;;9.03;3.07;;;9.20;64.60;;;;;;5054863;28;20427;-76
2022/11/03 02:39:11;;;;;;;8.13;2.93;;;9.20;69.70;;;;;;5043038;28;20460;-75
2022/11/03 02:41:39;;;;;;;6.30;3.10;;;9.20;63.40;;;;;;5039625;28;20508;-77
2022/11/03 02:44:10;;;;;;;4.10;3.23;;;9.20;71.80;;;;;;5053707;28;20390;-75
2022/11/03 02:46:38;;;;;;;4.10;2.87;;;9.10;72.70;;;;;;5052979;28;20586;-77
2022/11/03 02:49:04;;;;;;;8.73;2.97;;;9.20;63.80;;;;;;5053640;28;20442;-75
2022/11/03 02:51:29;;;;;;;3.53;3.00;;;9.20;61.90;;;;;;5054632;28;20434;-75
2022/11/03 02:54:25;;;;;;;6.73;2.77;;;9.20;59.60;;;;;;5053059;28;20171;-76
2022/11/03 02:57:20;;;;;;;4.47;2.70;;;9.20;57.70;;;;;;5042496;28;20694;-76
2022/11/03 03:00:00;;;;;;;4.63;2.60;;;9.20;57.80;;;;;;5053923;28;21012;-77
2022/11/03 03:02:34;;;;;;;3.13;2.67;;;9.30;26.30;;;;;;5054236;28;20440;-75
2022/11/03 03:05:04;;;;;;;9.03;3.43;;;9.30;55.90;;;;;;5052290;28;20955;-75
2022/11/03 03:07:35;;;;;;;5.80;2.90;;;9.30;46.40;;;;;;5053504;28;20376;-76
2022/11/03 03:10:03;;;;;;;4.47;2.53;;;9.20;58.40;;;;;;5053437;28;21006;-74
2022/11/03 03:12:32;;;;;;;5.40;2.80;;;9.30;57.10;;;;;;5054416;28;20457;-77
2022/11/03 03:15:00;;;;;;;6.13;3.27;;;9.30;53.30;;;;;;5053056;28;20419;-76
2022/11/03 03:17:49;;;;;;;4.00;2.87;;;9.40;51.60;;;;;;5052491;28;20417;-77
2022/11/03 03:20:33;;;;;;;6.40;3.30;;;9.30;50.20;;;;;;5047006;28;20457;-76
2022/11/03 03:23:07;;;;;;;2.70;2.50;;;9.30;49.50;;;;;;5053896;28;20420;-75
2022/11/03 03:26:11;;;;;;;11.93;3.50;;;9.20;57.50;;;;;;5051847;28;20452;-77
2022/11/03 03:28:47;;;;;;;7.13;2.50;;;9.20;47.80;;;;;;5053032;28;20925;-75
2022/11/03 03:31:13;;;;;;;8.07;2.87;;;9.20;28.40;;;;;;5054082;28;20453;-75
2022/11/03 03:33:41;;;;;;;8.43;3.30;;;9.20;33.00;;;;;;5052834;28;20888;-79
2022/11/03 03:36:12;;;;;;;6.00;2.73;;;9.20;26.70;;;;;;5053186;28;20441;-77
2022/11/03 03:38:43;;;;;;;7.20;2.87;;;9.20;26.50;;;;;;5051201;28;20464;-76
2022/11/03 03:41:12;;;;;;;13.33;3.23;;;9.10;30.20;;;;;;5053631;28;20928;-75
2022/11/03 03:43:39;;;;;;;6.50;3.13;;;9.10;31.40;;;;;;5052654;28;20514;-81
2022/11/03 03:46:12;;;;;;;6.13;3.63;;;9.10;29.20;;;;;;5053737;28;20428;-77
2022/11/03 03:48:38;;;;;;;4.57;2.77;;;9.00;27.10;;;;;;5052553;28;20429;-77
2022/11/03 03:51:05;;;;;;;3.73;2.90;;;8.90;25.30;;;;;;5053058;28;20546;-80
2022/11/03 03:53:31;;;;;;;7.77;4.77;;;8.90;33.70;;;;;;5051915;28;20771;-74
2022/11/03 03:55:58;;;;;;;5.30;2.80;;;8.80;33.90;;;;;;5052907;28;20479;-77
2022/11/03 03:58:24;;;;;;;2.50;2.30;;;8.90;28.50;;;;;;5051648;28;20659;-77
2022/11/03 04:00:49;;;;;;;4.60;3.30;;;8.80;27.90;;;;;;5053412;28;20384;-75
2022/11/03 04:03:20;;;;;;;5.20;2.37;;;8.90;31.60;;;;;;5052342;28;20194;-77
2022/11/03 04:05:46;;;;;;;16.10;3.37;;;8.80;30.60;;;;;;5052293;28;20291;-77
2022/11/03 04:08:14;;;;;;;6.70;4.67;;;8.80;35.50;;;;;;5050922;28;20458;-75
2022/11/03 04:10:39;;;;;;;5.33;2.60;;;8.80;38.00;;;;;;5050598;28;20471;-78
2022/11/03 04:23:47;;;;;;;6.63;3.70;;;8.70;46.50;;;;;;5052229;28;20404;-77
2022/11/03 04:26:18;;;;;;;3.60;2.60;;;8.70;41.30;;;;;;5052214;28;20450;-75
2022/11/03 04:28:44;;;;;;;2.57;2.37;;;8.70;51.00;;;;;;5052436;28;20290;-77
2022/11/03 04:31:15;;;;;;;7.13;2.87;;;8.70;49.70;;;;;;5053050;28;20451;-77
2022/11/03 04:33:41;;;;;;;5.70;2.90;;;8.70;42.20;;;;;;5052371;28;20450;-78
2022/11/03 04:36:21;;;;;;;5.23;2.67;;;8.70;47.80;;;;;;5050947;28;20458;-77
2022/11/03 04:38:48;;;;;;;5.10;2.77;;;8.70;43.20;;;;;;5052514;28;20887;-75
2022/11/03 04:41:27;;;;;;;5.17;3.17;;;8.70;42.50;;;;;;5051676;28;20778;-77
2022/11/03 04:43:53;;;;;;;3.93;3.00;;;8.70;42.30;;;;;;5051841;28;20512;-76
2022/11/03 04:46:25;;;;;;;4.03;2.87;;;8.70;48.80;;;;;;5051306;28;20452;-74
2022/11/03 04:48:52;;;;;;;5.00;2.53;;;8.70;45.20;;;;;;5052051;28;20487;-76
2022/11/03 04:51:22;;;;;;;4.10;3.23;;;8.70;41.40;;;;;;5052394;28;20450;-74
2022/11/03 04:54:11;;;;;;;6.00;3.10;;;8.70;45.10;;;;;;5051753;28;20423;-77
2022/11/03 04:56:36;;;;;;;7.33;3.00;;;8.70;41.90;;;;;;5046273;28;20415;-74
2022/11/03 04:59:04;;;;;;;7.87;2.93;;;8.70;42.70;;;;;;5050967;28;20434;-75
2022/11/03 05:01:30;;;;;;;3.17;2.80;;;8.70;42.00;;;;;;5052941;28;20252;-76
2022/11/03 05:03:56;;;;;;;4.57;2.70;;;8.60;49.60;;;;;;5050216;28;20457;-75
2022/11/03 05:06:26;;;;;;;3.17;2.40;;;8.60;47.50;;;;;;5052768;28;20865;-74
2022/11/03 05:08:57;;;;;;;13.03;3.23;;;8.70;56.40;;;;;;5050992;28;20182;-75
2022/11/03 05:11:40;;;;;;;9.77;5.43;;;8.60;42.30;;;;;;5056251;28;20455;-74
2022/11/03 05:14:21;;;;;;;5.57;3.10;;;8.70;53.90;;;;;;5054503;28;20435;-74
2022/11/03 05:16:49;;;;;;;13.63;3.00;;;8.70;56.10;;;;;;5056633;28;20503;-74
2022/11/03 05:19:19;;;;;;;5.90;2.93;;;8.60;45.50;;;;;;5055372;28;20426;-77
2022/11/03 05:21:48;;;;;;;4.80;2.67;;;8.60;35.50;;;;;;5056517;28;20762;-74
2022/11/03 05:24:15;;;;;;;13.00;2.77;;;8.50;42.40;;;;;;5053541;28;20906;-77
2022/11/03 05:26:42;;;;;;;5.20;3.20;;;8.50;43.90;;;;;;5056271;28;20446;-76
2022/11/03 05:29:10;;;;;;;6.23;2.70;;;8.50;46.40;;;;;;5055140;28;20435;-77
2022/11/03 05:31:36;;;;;;;6.83;2.50;;;8.50;53.50;;;;;;5056227;28;20445;-76
2022/11/03 05:34:30;;;;;;;6.30;2.83;;;8.60;48.50;;;;;;5055135;28;20947;-74
2022/11/03 05:37:05;;;;;;;6.47;3.67;;;8.60;38.60;;;;;;5055687;28;20785;-75
2022/11/03 05:39:37;;;;;;;13.63;2.90;;;8.50;41.30;;;;;;5055000;28;20429;-77
2022/11/03 05:42:21;;;;;;;7.70;2.67;;;8.50;48.00;;;;;;5054582;28;20512;-75
2022/11/03 05:44:48;;;;;;;3.97;2.37;;;8.50;44.00;;;;;;5054877;28;20945;-76
2022/11/03 05:47:23;;;;;;;5.73;3.03;;;8.40;51.70;;;;;;5055891;28;20538;-75
2022/11/03 05:49:53;;;;;;;7.40;3.17;;;8.40;61.90;;;;;;5054965;28;20426;-75
2022/11/03 05:52:23;;;;;;;4.40;2.83;;;8.40;62.70;;;;;;5055406;28;20767;-77
2022/11/03 05:54:49;;;;;;;3.83;2.73;;;8.30;67.30;;;;;;5054932;28;20960;-74
2022/11/03 05:57:16;;;;;;;10.33;2.80;;;8.30;65.30;;;;;;5055332;28;20463;-75
2022/11/03 05:59:44;;;;;;;4.20;2.33;;;8.30;70.60;;;;;;5054491;28;20950;-75
2022/11/03 06:02:37;;;;;;;7.03;3.00;;;8.30;70.10;;;;;;5052803;28;20751;-75
2022/11/03 06:05:18;;;;;;;7.23;2.80;;;8.40;63.20;;;;;;5027119;28;20513;-76
2022/11/03 06:07:44;;;;;;;4.87;3.10;;;8.30;70.60;;;;;;5040275;28;20911;-77
2022/11/03 06:10:23;;;;;;;8.13;3.07;;;8.30;68.70;;;;;;5055505;28;20472;-74
2022/11/03 06:12:49;;;;;;;4.10;3.20;;;8.30;77.20;;;;;;5055187;28;20770;-74
2022/11/03 06:15:29;;;;;;;5.10;3.27;;;8.30;76.80;;;;;;5054560;28;20417;-77
2022/11/03 06:17:56;;;;;;;4.87;2.87;;;8.30;71.80;;;;;;5053574;28;20172;-77
2022/11/03 06:20:22;;;;;;;10.43;2.90;;;8.30;87.10;;;;;;5053892;28;20441;-77
2022/11/03 06:22:51;;;;;;;4.47;3.43;;;8.30;82.20;;;;;;5054372;28;20426;-76
2022/11/03 06:25:28;;;;;;;9.50;3.07;;;8.30;78.70;;;;;;5054435;28;20191;-74
2022/11/03 06:28:00;;;;;;;5.23;3.17;;;8.30;87.90;;;;;;5053919;28;20437;-74
2022/11/03 06:30:28;;;;;;;4.67;3.03;;;8.30;87.70;;;;;;5054847;28;20482;-78
2022/11/03 06:32:59;;;;;;;3.90;3.40;;;8.40;91.60;;;;;;5055216;28;20398;-76
2022/11/03 06:35:25;;;;;;;11.63;3.70;;;8.40;91.80;;;;;;5052084;28;20995;-74
2022/11/03 06:37:51;;;;;;;3.87;2.30;;;8.40;91.80;;;;;;5053503;28;20445;-77
2022/11/03 06:40:16;;;;;;;6.40;2.87;;;8.50;91.20;;;;;;5054711;28;20421;-75
2022/11/03 06:42:42;;;;;;;5.03;2.50;;;8.50;91.90;;;;;;5054469;28;20179;-76
2022/11/03 06:45:20;;;;;;;3.30;2.40;;;8.60;91.70;;;;;;5053459;28;20655;-74
2022/11/03 06:47:46;;;;;;;2.93;2.60;;;8.60;90.90;;;;;;5053065;28;20169;-76
2022/11/03 06:50:31;;;;;;;3.03;2.60;;;8.60;91.60;;;;;;5040727;28;20462;-73
2022/11/03 06:53:01;;;;;;;8.00;3.40;;;8.60;91.70;;;;;;5058567;28;20434;-79
2022/11/03 06:55:39;;;;;;;2.90;2.70;;;8.50;91.60;;;;;;5046987;28;20441;-74
2022/11/03 06:58:39;;;;;;;5.67;2.43;;;8.50;91.90;;;;;;5054711;28;20405;-76
2022/11/03 07:01:28;;;;;;;3.60;2.70;;;8.60;91.30;;;;;;5052410;28;20418;-76
2022/11/03 07:04:02;;;;;;;3.00;2.53;;;8.60;91.80;;;;;;5050748;28;20539;-76
2022/11/03 07:06:33;;;;;;;7.73;3.40;;;8.60;91.90;;;;;;5054395;28;20454;-73
2022/11/03 07:09:00;;;;;;;7.10;3.47;;;8.60;91.90;;;;;;5054021;28;20421;-76
2022/11/03 07:11:40;;;;;;;3.20;2.90;;;8.60;91.90;;;;;;5053835;28;20512;-77
2022/11/03 07:14:16;;;;;;;5.00;2.73;;;8.70;91.90;;;;;;5051532;28;20809;-74
2022/11/03 07:17:03;;;;;;;4.97;2.90;;;8.70;92.00;;;;;;5053594;28;20461;-76
2022/11/03 07:19:38;;;;;;;3.53;3.17;;;8.70;92.00;;;;;;5054013;28;20468;-74
2022/11/03 07:22:18;;;;;;;9.13;3.23;;;8.80;92.00;;;;;;5053351;28;20531;-75
2022/11/03 07:24:46;;;;;;;6.90;3.03;;;8.80;92.00;;;;;;5052999;28;20852;-74
2022/11/03 07:27:30;;;;;;;3.23;2.90;;;8.90;92.00;;;;;;5053919;28;20417;-75
2022/11/03 07:30:19;;;;;;;5.93;2.90;;;8.90;92.00;;;;;;5052985;28;20790;-77
2022/11/03 07:32:51;;;;;;;3.53;3.23;;;8.90;92.00;;;;;;5051677;28;20985;-77
2022/11/03 07:35:16;;;;;;;5.47;3.50;;;8.90;92.10;;;;;;5052372;28;20418;-75
2022/11/03 07:37:47;;;;;;;10.43;4.77;;;8.90;92.00;;;;;;5052782;28;20490;-77
2022/11/03 07:40:20;;;;;;;8.17;3.60;;;9.00;92.10;;;;;;5053430;28;20192;-76
2022/11/03 07:42:46;;;;;;;4.20;2.70;;;9.10;92.10;;;;;;5052177;28;20450;-77
2022/11/03 07:45:40;;;;;;;6.70;2.83;;;9.10;92.10;;;;;;5052738;28;20403;-77
2022/11/03 07:48:25;;;;;;;5.93;3.13;;;9.10;92.10;;;;;;5054085;28;20172;-74
2022/11/03 07:50:53;;;;;;;6.10;3.13;;;9.20;92.10;;;;;;5053277;28;20458;-78
2022/11/03 07:53:33;;;;;;;5.63;2.80;;;9.20;92.10;;;;;;5052157;28;20497;-81
2022/11/03 07:56:00;;;;;;;4.37;2.20;;;9.30;92.20;;;;;;5052576;28;20947;-76
2022/11/03 07:58:37;;;;;;;15.13;3.00;;;9.30;92.00;;;;;;5052890;28;20428;-74
2022/11/03 08:01:26;;;;;;;3.53;2.87;;;9.30;88.80;;;;;;5053732;28;20402;-75
2022/11/03 08:03:55;;;;;;;8.43;2.80;;;9.30;92.20;;;;;;5052533;28;20725;-77
2022/11/03 08:06:20;;;;;;;6.67;2.97;;;9.40;91.90;;;;;;5053429;28;20800;-76
2022/11/03 08:08:46;;;;;;;14.67;3.27;;;9.40;92.20;;;;;;5052245;28;20436;-77
2022/11/03 08:11:12;;;;;;;8.73;4.43;;;9.50;92.30;;;;;;5051731;28;20691;-75
2022/11/03 08:13:37;;;;;;;7.90;3.03;;;9.50;92.20;;;;;;5050569;28;20185;-80
2022/11/03 08:16:03;;;;;;;3.57;2.67;;;9.50;92.30;;;;;;5053605;28;20284;-74
2022/11/03 08:18:29;;;;;;;5.47;3.20;;;9.50;92.10;;;;;;5052479;28;20582;-74
2022/11/03 08:20:55;;;;;;;6.23;3.40;;;9.50;85.20;;;;;;5053407;28;20798;-76
2022/11/03 08:23:20;;;;;;;6.60;3.43;;;9.50;87.60;;;;;;5053023;28;20264;-77
2022/11/03 08:25:46;;;;;;;2.83;2.30;;;9.60;92.30;;;;;;5051020;28;20643;-79
2022/11/03 08:28:12;;;;;;;5.97;3.77;;;9.60;86.00;;;;;;5052122;28;20268;-74
2022/11/03 08:30:37;;;;;;;6.10;2.80;;;9.60;91.20;;;;;;5053184;28;20209;-74
2022/11/03 08:33:03;;;;;;;6.33;3.03;;;9.70;91.40;;;;;;5053305;28;20169;-76
2022/11/03 08:35:29;;;;;;;4.40;3.30;;;9.70;89.30;;;;;;5052191;28;20608;-75
2022/11/03 08:37:54;;;;;;;4.27;3.70;;;9.70;89.10;;;;;;5052343;28;20177;-76
2022/11/03 08:40:20;;;;;;;3.47;3.10;;;9.80;86.30;;;;;;5053500;28;20516;-77
2022/11/03 08:42:45;;;;;;;8.10;3.50;;;9.80;87.60;;;;;;5051053;28;20885;-76
2022/11/03 08:45:12;;;;;;;5.33;3.23;;;9.80;90.00;;;;;;5053551;28;20246;-77
2022/11/03 08:47:40;;;;;;;8.60;2.70;;;9.80;91.90;;;;;;5056317;28;20754;-77
2022/11/03 08:50:06;;;;;;;6.03;2.90;;;9.80;87.70;;;;;;5057071;28;20475;-77
2022/11/03 08:52:32;;;;;;;2.80;2.40;;;9.90;90.20;;;;;;5057024;28;20971;-75
2022/11/03 08:54:58;;;;;;;6.30;2.97;;;9.90;91.90;;;;;;5055383;28;20436;-76
2022/11/03 08:57:23;;;;;;;7.57;3.93;;;10.00;80.50;;;;;;5056988;28;20271;-77
2022/11/03 08:59:51;;;;;;;7.60;2.40;;;10.00;86.50;;;;;;5054769;28;20175;-77
2022/11/03 09:02:17;;;;;;;10.73;2.73;;;10.00;88.80;;;;;;5055314;28;20281;-75
2022/11/03 09:04:43;;;;;;;5.20;2.57;;;10.10;91.60;;;;;;5055828;28;20416;-77
2022/11/03 09:07:09;;;;;;;12.27;4.20;;;10.20;85.90;;;;;;5056710;28;20428;-75
2022/11/03 09:09:34;;;;;;;6.50;2.30;;;10.30;81.00;;;;;;5056548;28;20174;-75
2022/11/03 09:12:00;;;;;;;4.97;3.20;;;10.40;71.90;;;;;;5069385;28;20203;-75
2022/11/03 09:14:26;;;;;;;2.97;2.70;;;10.50;75.80;;;;;;5070428;28;20186;-77
2022/11/03 09:16:51;;;;;;;6.80;3.20;;;10.70;88.80;;;;;;5054665;28;20206;-74
2022/11/03 09:19:17;;;;;;;7.57;3.50;;;11.00;75.60;;;;;;5056349;28;20535;-75
2022/11/03 09:21:43;;;;;;;4.33;2.43;;;11.10;55.00;;;;;;5056179;28;20167;-76
2022/11/03 09:24:08;;;;;;;4.90;2.60;;;11.20;62.10;;;;;;5055465;28;20202;-71
2022/11/03 09:26:34;;;;;;;4.73;2.83;;;11.40;47.80;;;;;;5055525;28;20241;-73
2022/11/03 09:29:00;;;;;;;3.47;2.53;;;11.40;39.20;;;;;;5056566;28;20623;-73
2022/11/03 09:31:27;;;;;;;9.53;2.77;;;11.50;27.30;;;;;;5056304;28;20260;-74
2022/11/03 09:33:53;;;;;;;5.37;2.90;;;11.50;19.00;;;;;;5054469;28;20175;-73
2022/11/03 09:36:19;;;;;;;4.67;2.80;;;11.60;23.70;;;;;;5054090;28;20521;-78
2022/11/03 09:38:44;;;;;;;6.37;3.37;;;11.70;14.20;;;;;;5056366;28;20396;-72
2022/11/03 09:41:16;;;;;;;2.40;2.17;;;11.80;15.60;;;;;;5056331;28;20175;-72
2022/11/03 09:43:46;;;;;;;6.40;2.43;;;11.80;1.00;;;;;;5054366;28;20710;-75
2022/11/03 09:46:13;;;;;;;3.90;2.80;;;11.90;10.20;;;;;;5055056;28;20461;-76
2022/11/03 09:48:39;;;;;;;5.80;2.57;;;12.00;8.40;;;;;;5056089;28;20865;-76
2022/11/03 09:51:05;;;;;;;4.70;2.50;;;12.00;4.40;;;;;;5055897;28;20438;-73
2022/11/03 09:53:31;;;;;;;4.27;2.30;;;12.00;1.00;;;;;;5054321;28;20186;-73
2022/11/03 09:55:56;;;;;;;4.80;2.67;;;12.10;1.00;;;;;;5053349;28;20424;-77
2022/11/03 09:58:22;;;;;;;3.20;2.90;;;12.20;1.00;;;;;;5055469;28;20170;-76
2022/11/03 10:00:48;;;;;;;4.13;2.87;;;12.30;1.00;;;;;;5055767;28;20255;-75
2022/11/03 10:03:16;;;;;;;5.20;2.40;;;12.30;1.00;;;;;;5055559;28;20193;-75
2022/11/03 10:05:43;;;;;;;6.50;2.33;;;12.30;1.00;;;;;;5052230;28;20206;-73
2022/11/03 10:08:26;;;;;;;6.77;3.10;;;12.20;1.00;;;;;;5054897;28;20415;-75
2022/11/03 10:10:53;;;;;;;4.33;3.30;;;12.10;1.00;;;;;;5054502;28;20494;-75
2022/11/03 10:13:27;;;;;;;5.23;3.10;;;12.10;1.00;;;;;;5054887;28;20376;-78
2022/11/03 10:15:53;;;;;;;5.93;3.00;;;12.00;1.00;;;;;;5053529;28;20431;-73
2022/11/03 10:18:19;;;;;;;4.30;2.80;;;12.00;1.00;;;;;;5054853;28;20396;-76
2022/11/03 10:20:45;;;;;;;9.77;3.20;;;11.90;1.00;;;;;;5055220;28;20402;-76
2022/11/03 10:23:11;;;;;;;3.27;2.70;;;11.90;1.00;;;;;;5055448;28;20384;-72
2022/11/03 10:25:38;;;;;;;4.70;2.30;;;12.00;1.00;;;;;;5053425;28;20214;-75
2022/11/03 10:28:17;;;;;;;4.07;1.77;;;12.00;1.00;;;;;;5055213;28;20171;-76
2022/11/03 10:31:07;;;;;;;4.97;2.80;;;12.10;1.00;;;;;;5053999;28;20442;-76
2022/11/03 10:33:39;;;;;;;4.37;2.53;;;12.20;1.00;;;;;;5054395;28;20904;-73
2022/11/03 10:36:26;;;;;;;7.03;3.07;;;12.30;1.00;;;;;;5053069;28;20888;-76
2022/11/03 10:38:53;;;;;;;5.90;2.30;;;12.30;1.00;;;;;;5054996;28;20398;-73
2022/11/03 10:41:30;;;;;;;4.63;2.30;;;12.30;1.00;;;;;;5055039;28;20420;-74
2022/11/03 10:44:10;;;;;;;8.37;2.70;;;12.40;1.00;;;;;;5054140;28;20387;-73
2022/11/03 10:46:38;;;;;;;5.70;3.53;;;12.60;1.00;;;;;;5053793;28;20453;-74
2022/11/03 10:49:15;;;;;;;7.90;2.80;;;12.70;1.00;;;;;;5054968;28;20399;-76
2022/11/03 10:51:42;;;;;;;7.07;2.30;;;12.70;1.00;;;;;;5054419;28;20435;-73
2022/11/03 10:54:13;;;;;;;6.30;2.23;;;12.80;1.00;;;;;;5052154;28;20437;-76
2022/11/03 10:56:40;;;;;;;4.33;2.40;;;12.80;1.00;;;;;;5053101;28;20424;-73
2022/11/03 10:59:09;;;;;;;7.30;2.60;;;12.80;1.00;;;;;;5053963;28;20429;-76
2022/11/03 11:01:36;;;;;;;5.53;2.53;;;12.90;1.00;;;;;;5054700;28;20446;-76
2022/11/03 11:04:03;;;;;;;3.43;2.10;;;13.00;1.00;;;;;;5052709;28;20922;-74
2022/11/03 11:06:30;;;;;;;9.50;2.50;;;13.10;1.00;;;;;;5053302;28;20490;-74
2022/11/03 11:09:01;;;;;;;4.03;2.40;;;13.00;1.00;;;;;;5054331;28;20764;-75
2022/11/03 11:11:28;;;;;;;6.60;2.77;;;13.00;1.00;;;;;;5054945;28;20424;-75
2022/11/03 11:14:24;;;;;;;5.17;3.40;;;13.00;1.00;;;;;;5052161;28;20432;-74
2022/11/03 11:16:53;;;;;;;4.13;2.17;;;13.00;1.00;;;;;;5053219;28;20444;-75
2022/11/03 11:19:21;;;;;;;3.30;2.20;;;13.00;1.00;;;;;;5054320;28;20485;-75
2022/11/03 11:21:46;;;;;;;5.90;2.00;;;13.10;1.00;;;;;;5054475;28;20494;-74
2022/11/03 11:24:13;;;;;;;7.90;2.30;;;13.20;1.00;;;;;;5052779;28;20504;-73
2022/11/03 11:26:39;;;;;;;5.80;2.20;;;13.20;1.00;;;;;;5052989;28;20591;-72
2022/11/03 11:29:11;;;;;;;4.10;2.70;;;13.20;1.00;;;;;;5053990;28;20424;-72
2022/11/03 11:32:33;;;;;;;5.37;2.77;;;13.30;1.00;;;;;;5053063;28;20453;-72
2022/11/03 11:34:59;;;;;;;5.27;2.60;;;13.40;1.00;;;;;;5052879;28;20500;-75
2022/11/03 11:37:24;;;;;;;6.13;2.37;;;13.50;1.00;;;;;;5052859;28;20583;-71
2022/11/03 11:39:50;;;;;;;6.83;2.60;;;13.60;1.00;;;;;;5053911;28;20163;-73
2022/11/03 11:42:17;;;;;;;7.57;2.37;;;13.60;1.00;;;;;;5053719;28;20178;-72
2022/11/03 11:44:44;;;;;;;6.83;2.90;;;13.50;1.00;;;;;;5053001;28;20171;-75
2022/11/03 11:47:37;;;;;;;10.50;3.23;;;13.60;1.00;;;;;;5052696;28;20415;-73
2022/11/03 11:50:06;;;;;;;5.83;2.57;;;13.70;1.00;;;;;;5053724;28;20375;-72
2022/11/03 11:52:32;;;;;;;6.50;2.77;;;13.70;1.00;;;;;;5053179;28;20395;-75
2022/11/03 11:54:58;;;;;;;5.37;2.33;;;13.70;1.00;;;;;;5052873;28;20475;-72
2022/11/03 11:57:24;;;;;;;10.57;2.17;;;13.70;1.00;;;;;;5052568;28;20606;-72
2022/11/03 11:59:50;;;;;;;2.73;1.83;;;13.70;1.00;;;;;;5052137;28;20181;-72
2022/11/03 12:02:23;;;;;;;7.73;2.20;;;13.80;1.00;;;;;;5052872;28;20508;-75
2022/11/03 12:05:00;;;;;;;3.87;2.40;;;13.80;1.00;;;;;;5052771;28;21006;-72
2022/11/03 12:07:52;;;;;;;4.57;1.97;;;13.80;1.00;;;;;;5053363;28;20944;-72
2022/11/03 12:10:22;;;;;;;7.17;2.30;;;13.80;1.00;;;;;;5049507;28;20436;-75
2022/11/03 12:12:49;;;;;;;7.53;2.73;;;13.80;1.00;;;;;;5053602;28;20483;-75
2022/11/03 12:15:52;;;;;;;6.20;2.17;;;13.90;1.00;;;;;;5052405;28;20380;-74
2022/11/03 12:18:37;;;;;;;5.00;2.13;;;13.80;1.00;;;;;;5053145;28;20376;-75
2022/11/03 12:21:08;;;;;;;3.73;2.17;;;13.70;1.00;;;;;;5051782;28;20388;-71
2022/11/03 12:23:35;;;;;;;2.17;1.97;;;13.70;1.00;;;;;;5052523;28;20722;-74
2022/11/03 12:26:03;;;;;;;6.10;2.30;;;13.70;1.00;;;;;;5051862;28;20463;-71
2022/11/03 12:28:36;;;;;;;3.03;2.30;;;13.80;1.00;;;;;;5053375;28;20405;-74
2022/11/03 12:31:02;;;;;;;4.20;2.20;;;13.70;1.00;;;;;;5052297;28;20952;-75
2022/11/03 12:33:29;;;;;;;6.67;3.03;;;13.70;1.00;;;;;;5052814;28;20415;-76
2022/11/03 12:35:55;;;;;;;6.60;2.70;;;13.70;1.00;;;;;;5052425;28;20418;-75
2022/11/03 12:38:22;;;;;;;8.97;3.40;;;13.80;1.00;;;;;;5051614;28;20414;-72
2022/11/03 12:40:47;;;;;;;2.87;2.20;;;13.80;1.00;;;;;;5051465;28;20425;-75
2022/11/03 12:43:13;;;;;;;8.00;2.40;;;13.90;1.00;;;;;;5068580;28;20744;-75
2022/11/03 12:45:40;;;;;;;4.70;2.57;;;13.80;1.00;;;;;;5051996;28;20183;-76
2022/11/03 12:48:06;;;;;;;7.70;2.73;;;13.80;1.00;;;;;;5052281;28;20265;-72
2022/11/03 12:50:33;;;;;;;4.10;2.57;;;13.70;1.00;;;;;;5051773;28;20814;-76
2022/11/03 12:52:58;;;;;;;3.13;2.30;;;13.70;1.00;;;;;;5052006;28;20512;-74
2022/11/03 12:55:24;;;;;;;2.30;2.10;;;13.60;1.00;;;;;;5051968;28;20484;-74
2022/11/03 12:57:50;;;;;;;7.10;3.00;;;13.60;1.00;;;;;;5051772;28;20179;-71
2022/11/03 13:00:16;;;;;;;6.67;2.80;;;13.50;1.00;;;;;;5052895;28;20229;-75
2022/11/03 13:02:42;;;;;;;6.33;2.30;;;13.50;1.00;;;;;;5052974;28;20167;-74
2022/11/03 13:05:08;;;;;;;3.03;2.17;;;13.40;1.00;;;;;;5051991;28;20498;-74
2022/11/03 13:07:34;;;;;;;7.03;2.50;;;13.40;1.00;;;;;;5052018;28;20186;-72
2022/11/03 13:09:59;;;;;;;7.43;2.70;;;13.40;1.00;;;;;;5052821;28;20918;-74
2022/11/03 13:12:31;;;;;;;5.53;2.60;;;13.40;1.00;;;;;;5051671;28;20205;-74
2022/11/03 13:15:02;;;;;;;3.70;2.60;;;13.40;1.00;;;;;;5050834;28;20170;-75
2022/11/03 13:17:28;;;;;;;8.33;1.97;;;13.40;1.00;;;;;;5051784;28;20495;-71
2022/11/03 13:19:54;;;;;;;5.57;3.33;;;13.50;1.00;;;;;;5052646;28;20874;-74
2022/11/03 13:22:20;;;;;;;3.47;2.13;;;13.50;1.00;;;;;;5051803;28;20183;-76
2022/11/03 13:24:45;;;;;;;9.17;2.77;;;13.60;1.00;;;;;;5052107;28;20178;-76
2022/11/03 13:27:12;;;;;;;2.70;2.07;;;13.70;1.00;;;;;;5050385;28;20199;-75
2022/11/03 13:29:38;;;;;;;5.60;2.20;;;13.70;1.00;;;;;;5052152;28;20175;-76